Time;durP1;ratioP1;P1;durP2;ratioP2;P2;SDS_P1;SDS_P2;PMS_P1;PMS_P2;Temp;Humidity;BMP_temperature;BMP_pressure;BME280_temperature;BME280_humidity;BME280_pressure;Samples;Min_cycle;Max_cycle;Signal;HPM_P1;HPM_P2
2021/12/27 00:00:35;;;;;;;0.80;0.80;;;8.70;99.90;;;;;;5004781;28;20293;-69
2021/12/27 00:03:03;;;;;;;0.70;0.70;;;8.60;99.90;;;;;;5044123;28;20201;-68
2021/12/27 00:05:31;;;;;;;0.90;0.90;;;8.60;99.90;;;;;;5037089;28;20255;-68
2021/12/27 00:07:59;;;;;;;1.00;0.90;;;8.60;99.90;;;;;;5022745;28;20202;-69
2021/12/27 00:10:28;;;;;;;0.70;0.70;;;8.60;99.90;;;;;;5015099;28;20216;-69
2021/12/27 00:12:56;;;;;;;0.70;0.70;;;8.60;99.90;;;;;;5011483;28;20215;-69
2021/12/27 00:15:23;;;;;;;0.80;0.80;;;8.50;99.90;;;;;;5011882;28;20221;-67
2021/12/27 00:17:50;;;;;;;0.70;0.70;;;8.50;99.90;;;;;;5011367;28;20232;-68
2021/12/27 00:20:20;;;;;;;0.90;0.90;;;8.50;99.90;;;;;;5011327;28;20237;-69
2021/12/27 00:22:48;;;;;;;0.70;0.70;;;8.50;99.90;;;;;;5011737;28;20201;-68
2021/12/27 00:25:17;;;;;;;0.67;0.67;;;8.50;99.90;;;;;;5010444;28;20343;-68
2021/12/27 00:27:45;;;;;;;0.80;0.80;;;8.50;99.90;;;;;;5011855;28;20220;-68
2021/12/27 00:30:13;;;;;;;0.70;0.70;;;8.50;99.90;;;;;;5011635;28;20210;-69
2021/12/27 00:32:43;;;;;;;0.70;0.70;;;8.50;99.90;;;;;;5012633;28;20797;-69
2021/12/27 00:35:11;;;;;;;0.90;0.90;;;8.50;99.90;;;;;;5015531;28;20231;-69
2021/12/27 00:37:38;;;;;;;0.90;0.90;;;8.50;99.90;;;;;;5013798;28;20293;-67
2021/12/27 00:40:07;;;;;;;0.97;0.97;;;8.60;99.90;;;;;;5000978;28;20215;-68
2021/12/27 00:42:36;;;;;;;0.73;0.73;;;8.60;99.90;;;;;;5015233;28;20636;-69
2021/12/27 00:45:03;;;;;;;0.70;0.70;;;8.60;99.90;;;;;;5015731;28;20244;-67
2021/12/27 00:47:30;;;;;;;0.60;0.60;;;8.60;99.90;;;;;;5015253;28;20241;-68
2021/12/27 00:49:57;;;;;;;0.50;0.50;;;8.60;99.90;;;;;;5015423;28;20676;-66
2021/12/27 00:52:24;;;;;;;0.70;0.70;;;8.60;99.90;;;;;;5016275;28;20241;-68
2021/12/27 00:54:50;;;;;;;0.40;0.40;;;8.60;99.90;;;;;;5015806;28;20710;-68
2021/12/27 00:57:17;;;;;;;0.70;0.70;;;8.60;99.90;;;;;;5015534;28;20292;-70
2021/12/27 00:59:45;;;;;;;0.57;0.57;;;8.70;99.90;;;;;;5016388;28;20255;-68
2021/12/27 01:02:12;;;;;;;0.60;0.60;;;8.60;99.90;;;;;;5015449;28;20209;-68
2021/12/27 01:04:39;;;;;;;0.63;0.63;;;8.70;99.90;;;;;;5013554;28;20229;-69
2021/12/27 01:07:06;;;;;;;0.67;0.67;;;8.70;99.90;;;;;;5009927;28;20634;-69
2021/12/27 01:09:44;;;;;;;0.63;0.63;;;8.70;99.90;;;;;;5014302;28;20733;-67
2021/12/27 01:12:27;;;;;;;0.67;0.67;;;8.70;99.90;;;;;;5013031;28;20296;-67
2021/12/27 01:15:09;;;;;;;0.40;0.40;;;8.80;99.90;;;;;;5015178;28;20217;-68
2021/12/27 01:17:36;;;;;;;0.40;0.40;;;8.90;99.90;;;;;;5014628;28;20209;-66
2021/12/27 01:20:05;;;;;;;0.63;0.63;;;9.00;99.90;;;;;;5014860;28;20313;-66
2021/12/27 01:22:32;;;;;;;0.70;0.70;;;9.00;99.90;;;;;;5014896;28;20211;-66
2021/12/27 01:24:59;;;;;;;0.47;0.47;;;9.00;99.90;;;;;;5015891;28;20256;-68
2021/12/27 01:27:33;;;;;;;0.50;0.50;;;9.00;99.90;;;;;;5017728;28;20209;-70
2021/12/27 01:30:07;;;;;;;0.60;0.60;;;9.00;99.90;;;;;;5020993;28;20887;-68
2021/12/27 01:32:44;;;;;;;0.40;0.40;;;9.00;99.90;;;;;;5010147;28;20209;-68
2021/12/27 01:35:11;;;;;;;0.57;0.57;;;9.00;99.90;;;;;;5008331;28;20232;-68
2021/12/27 01:37:38;;;;;;;0.60;0.60;;;9.00;99.90;;;;;;5013854;28;20782;-68
2021/12/27 01:40:07;;;;;;;0.70;0.70;;;9.00;99.90;;;;;;5014501;28;20208;-69
2021/12/27 01:42:34;;;;;;;0.60;0.60;;;9.00;99.90;;;;;;5013627;28;20210;-68
2021/12/27 01:45:01;;;;;;;0.60;0.60;;;9.00;99.90;;;;;;5012198;28;20225;-68
2021/12/27 01:47:30;;;;;;;0.63;0.63;;;9.00;99.90;;;;;;5013939;28;20303;-67
2021/12/27 01:49:58;;;;;;;0.60;0.60;;;9.00;99.90;;;;;;5011426;28;20225;-68
2021/12/27 01:52:24;;;;;;;0.60;0.60;;;9.00;99.90;;;;;;5013767;28;20247;-68
2021/12/27 01:54:52;;;;;;;0.50;0.50;;;9.00;99.90;;;;;;5013342;28;20312;-69
2021/12/27 01:57:19;;;;;;;0.50;0.50;;;9.10;99.90;;;;;;5013800;28;20300;-68
2021/12/27 01:59:46;;;;;;;0.70;0.70;;;9.00;99.90;;;;;;5013978;28;20238;-67
2021/12/27 02:02:13;;;;;;;0.50;0.50;;;9.00;99.90;;;;;;5013886;28;20292;-68
2021/12/27 02:04:41;;;;;;;0.60;0.60;;;9.00;99.90;;;;;;5013264;28;20236;-67
2021/12/27 02:07:08;;;;;;;0.50;0.50;;;9.00;99.90;;;;;;5013170;28;20324;-68
2021/12/27 02:09:46;;;;;;;1.00;0.70;;;9.10;99.90;;;;;;5013426;28;20292;-68
2021/12/27 02:12:13;;;;;;;0.63;0.63;;;9.10;99.90;;;;;;5013921;28;20251;-68
2021/12/27 02:14:40;;;;;;;0.40;0.40;;;9.10;99.90;;;;;;5013727;28;20225;-67
2021/12/27 02:17:07;;;;;;;0.90;0.90;;;9.00;99.90;;;;;;5013741;28;20276;-67
2021/12/27 02:19:36;;;;;;;0.80;0.80;;;9.10;99.90;;;;;;5013449;28;20232;-68
2021/12/27 02:22:05;;;;;;;0.80;0.80;;;9.10;99.90;;;;;;5013473;28;20205;-68
2021/12/27 02:24:33;;;;;;;0.63;0.63;;;9.10;99.90;;;;;;5017880;28;20225;-68
2021/12/27 02:26:59;;;;;;;0.43;0.43;;;9.10;99.90;;;;;;5019241;28;20255;-68
2021/12/27 02:29:26;;;;;;;0.40;0.40;;;9.10;99.90;;;;;;5020470;28;20286;-68
2021/12/27 02:31:53;;;;;;;0.60;0.60;;;9.10;99.90;;;;;;5020351;28;20301;-68
2021/12/27 02:34:20;;;;;;;0.40;0.40;;;9.10;99.90;;;;;;5018976;28;20271;-69
2021/12/27 02:36:49;;;;;;;0.50;0.50;;;9.10;99.90;;;;;;5012760;28;20297;-68
2021/12/27 02:39:17;;;;;;;0.80;0.80;;;9.10;99.90;;;;;;5013097;28;20205;-68
2021/12/27 02:41:44;;;;;;;0.53;0.53;;;9.10;99.90;;;;;;5012862;28;20611;-68
2021/12/27 02:44:11;;;;;;;0.80;0.80;;;9.10;99.90;;;;;;5013077;28;20201;-69
2021/12/27 02:46:38;;;;;;;0.73;0.73;;;9.10;99.90;;;;;;5012612;28;20717;-68
2021/12/27 02:49:05;;;;;;;0.80;0.80;;;9.10;99.90;;;;;;5010428;28;20240;-68
2021/12/27 02:51:32;;;;;;;0.60;0.60;;;9.10;99.90;;;;;;5012375;28;20270;-69
2021/12/27 02:53:59;;;;;;;0.60;0.60;;;9.10;99.90;;;;;;5012289;28;20224;-68
2021/12/27 02:56:29;;;;;;;0.60;0.60;;;9.10;99.90;;;;;;5001020;28;20335;-67
2021/12/27 02:58:58;;;;;;;0.70;0.70;;;9.10;99.90;;;;;;5009563;28;20207;-67
2021/12/27 03:01:25;;;;;;;0.40;0.40;;;9.10;99.90;;;;;;5012682;28;20202;-68
2021/12/27 03:03:53;;;;;;;0.60;0.60;;;9.10;99.90;;;;;;5012265;28;20205;-68
2021/12/27 03:06:20;;;;;;;0.50;0.50;;;9.20;99.90;;;;;;5011820;28;20594;-69
2021/12/27 03:08:49;;;;;;;0.80;0.80;;;9.20;99.90;;;;;;5011987;28;20835;-68
2021/12/27 03:11:16;;;;;;;0.70;0.70;;;9.20;99.90;;;;;;5012734;28;20208;-68
2021/12/27 03:13:51;;;;;;;0.50;0.50;;;9.30;99.90;;;;;;5012439;28;20240;-68
2021/12/27 03:16:19;;;;;;;0.70;0.70;;;9.30;99.90;;;;;;5012444;28;20231;-68
2021/12/27 03:18:49;;;;;;;0.60;0.60;;;9.30;99.90;;;;;;5012833;28;20289;-69
2021/12/27 03:21:16;;;;;;;0.60;0.60;;;9.30;99.90;;;;;;5012409;28;20295;-68
2021/12/27 03:23:44;;;;;;;0.57;0.50;;;9.50;99.90;;;;;;5012465;28;20342;-68
2021/12/27 03:26:12;;;;;;;0.60;0.60;;;9.30;99.90;;;;;;5015293;28;20233;-69
2021/12/27 03:28:40;;;;;;;0.50;0.50;;;9.40;99.90;;;;;;5012023;28;20243;-69
2021/12/27 03:31:09;;;;;;;0.60;0.60;;;9.40;99.90;;;;;;5011931;28;20288;-68
2021/12/27 03:33:36;;;;;;;0.70;0.70;;;9.40;99.90;;;;;;5012324;28;20384;-68
2021/12/27 03:36:06;;;;;;;0.67;0.67;;;9.40;99.90;;;;;;5012103;28;20307;-69
2021/12/27 03:38:37;;;;;;;0.63;0.63;;;9.40;99.90;;;;;;5024333;28;20193;-68
2021/12/27 03:41:06;;;;;;;0.67;0.67;;;9.40;99.90;;;;;;5020559;28;20236;-67
2021/12/27 03:43:33;;;;;;;0.50;0.50;;;9.40;99.90;;;;;;5009753;28;20205;-67
2021/12/27 03:46:00;;;;;;;0.50;0.50;;;9.40;99.90;;;;;;5019414;28;20248;-68
2021/12/27 03:48:29;;;;;;;1.00;0.40;;;9.40;99.90;;;;;;5013217;28;20640;-68
2021/12/27 03:50:56;;;;;;;0.57;0.57;;;9.50;99.90;;;;;;5011532;28;20572;-69
2021/12/27 03:53:23;;;;;;;0.60;0.60;;;9.50;99.90;;;;;;5011630;28;20214;-68
2021/12/27 03:55:50;;;;;;;0.60;0.60;;;9.50;99.90;;;;;;5031209;22;20324;-62
2021/12/27 03:58:30;;;;;;;0.40;0.40;;;9.50;99.90;;;;;;5001947;28;20204;-61
2021/12/27 04:01:01;;;;;;;0.63;0.63;;;9.50;99.90;;;;;;5005179;28;20212;-63
2021/12/27 04:03:31;;;;;;;0.60;0.60;;;9.50;99.90;;;;;;5011003;28;20201;-64
2021/12/27 04:05:59;;;;;;;0.47;0.47;;;9.50;99.90;;;;;;5013182;28;20592;-62
2021/12/27 04:08:26;;;;;;;0.50;0.50;;;9.50;99.90;;;;;;5015771;28;20216;-61
2021/12/27 04:10:54;;;;;;;1.00;0.60;;;9.50;99.90;;;;;;5017250;28;20311;-61
2021/12/27 04:13:21;;;;;;;0.63;0.63;;;9.50;99.90;;;;;;5017305;28;20743;-62
2021/12/27 04:15:49;;;;;;;0.70;0.70;;;9.50;99.90;;;;;;5017846;28;20232;-63
2021/12/27 04:18:16;;;;;;;0.43;0.43;;;9.50;99.90;;;;;;5019019;28;20296;-62
2021/12/27 04:20:45;;;;;;;0.60;0.60;;;9.50;99.90;;;;;;5017339;28;20235;-62
2021/12/27 04:23:13;;;;;;;0.50;0.50;;;9.50;99.90;;;;;;5017622;28;20201;-62
2021/12/27 04:25:40;;;;;;;0.60;0.60;;;9.40;99.90;;;;;;5017748;28;20240;-62
2021/12/27 04:28:07;;;;;;;0.70;0.70;;;9.40;99.90;;;;;;5016909;28;20201;-61
2021/12/27 04:30:36;;;;;;;0.60;0.60;;;9.40;99.90;;;;;;5016732;28;20236;-63
2021/12/27 04:33:05;;;;;;;0.40;0.40;;;9.40;99.90;;;;;;5020448;28;20205;-64
2021/12/27 04:35:33;;;;;;;0.50;0.50;;;9.40;99.90;;;;;;5017093;28;20309;-62
2021/12/27 04:38:02;;;;;;;0.40;0.40;;;9.30;99.90;;;;;;5017056;28;20292;-63
2021/12/27 04:40:31;;;;;;;0.40;0.40;;;9.30;99.90;;;;;;5013912;28;20325;-62
2021/12/27 04:43:01;;;;;;;0.60;0.60;;;9.30;99.90;;;;;;5016878;28;20683;-61
2021/12/27 04:45:28;;;;;;;0.40;0.40;;;9.30;99.90;;;;;;5016554;28;20233;-61
2021/12/27 04:47:55;;;;;;;0.50;0.50;;;9.30;99.90;;;;;;5014904;28;20205;-63
2021/12/27 04:50:25;;;;;;;0.50;0.50;;;9.30;99.90;;;;;;5003821;28;20746;-63
2021/12/27 04:52:53;;;;;;;0.57;0.57;;;9.30;99.90;;;;;;5012383;28;20632;-64
2021/12/27 04:55:22;;;;;;;0.50;0.50;;;9.30;99.90;;;;;;5016753;28;20236;-63
2021/12/27 04:57:50;;;;;;;0.50;0.50;;;9.30;99.90;;;;;;5017318;28;20292;-62
2021/12/27 05:00:17;;;;;;;0.40;0.40;;;9.20;99.90;;;;;;5014328;28;20284;-62
2021/12/27 05:02:44;;;;;;;0.50;0.50;;;9.20;99.90;;;;;;5014638;28;20656;-62
2021/12/27 05:05:13;;;;;;;0.37;0.37;;;9.20;99.90;;;;;;5012958;28;20785;-62
2021/12/27 05:07:40;;;;;;;0.47;0.47;;;9.30;99.90;;;;;;5018750;28;20210;-62
2021/12/27 05:10:07;;;;;;;0.40;0.40;;;9.20;99.90;;;;;;5002463;28;20758;-62
2021/12/27 05:12:36;;;;;;;0.40;0.40;;;9.20;99.90;;;;;;5017997;28;20284;-63
2021/12/27 05:15:04;;;;;;;0.40;0.40;;;9.10;99.90;;;;;;5018091;28;20312;-62
2021/12/27 05:17:31;;;;;;;0.40;0.40;;;9.10;99.90;;;;;;5017495;28;20206;-62
2021/12/27 05:19:58;;;;;;;0.47;0.47;;;9.10;99.90;;;;;;5016565;28;20211;-62
2021/12/27 05:22:25;;;;;;;0.63;0.63;;;9.10;99.90;;;;;;5017137;28;20205;-63
2021/12/27 05:24:52;;;;;;;0.70;0.70;;;9.10;99.90;;;;;;5016646;28;20205;-63
2021/12/27 05:27:19;;;;;;;0.30;0.30;;;9.10;99.90;;;;;;5002747;28;20229;-64
2021/12/27 05:29:48;;;;;;;0.47;0.47;;;9.10;99.90;;;;;;5012492;28;20304;-62
2021/12/27 05:32:15;;;;;;;0.53;0.53;;;9.10;99.90;;;;;;5000745;28;20229;-62
2021/12/27 05:34:42;;;;;;;0.33;0.33;;;9.10;99.90;;;;;;5015343;28;20284;-62
2021/12/27 05:37:08;;;;;;;0.40;0.40;;;9.10;99.90;;;;;;5016000;28;20233;-62
2021/12/27 05:39:36;;;;;;;0.57;0.57;;;9.10;99.90;;;;;;5011413;28;20211;-61
2021/12/27 05:42:04;;;;;;;0.40;0.40;;;9.10;99.90;;;;;;5012257;28;20233;-62
2021/12/27 05:44:31;;;;;;;0.50;0.50;;;9.10;99.90;;;;;;5017059;28;20205;-62
2021/12/27 05:46:59;;;;;;;0.60;0.60;;;9.10;99.90;;;;;;5016126;28;20225;-62
2021/12/27 05:49:26;;;;;;;0.50;0.50;;;9.10;99.90;;;;;;5015601;28;20292;-62
2021/12/27 05:51:53;;;;;;;0.50;0.50;;;9.10;99.90;;;;;;5014915;28;20296;-62
2021/12/27 05:54:21;;;;;;;0.43;0.43;;;9.10;99.90;;;;;;5015563;28;20201;-62
2021/12/27 05:56:49;;;;;;;0.50;0.50;;;9.10;99.90;;;;;;5014641;28;20279;-62
2021/12/27 05:59:16;;;;;;;0.50;0.50;;;9.20;99.90;;;;;;5006606;28;20212;-62
2021/12/27 06:01:43;;;;;;;0.30;0.30;;;9.20;99.90;;;;;;5011255;28;20205;-62
2021/12/27 06:04:12;;;;;;;0.43;0.43;;;9.20;99.90;;;;;;5014817;28;20202;-62
2021/12/27 06:06:39;;;;;;;0.40;0.40;;;9.20;99.90;;;;;;5014528;28;20652;-62
2021/12/27 06:09:06;;;;;;;0.40;0.40;;;9.20;99.90;;;;;;5015836;28;20243;-62
2021/12/27 06:11:33;;;;;;;0.50;0.50;;;9.30;99.90;;;;;;5015385;28;20288;-62
2021/12/27 06:14:01;;;;;;;0.50;0.50;;;9.20;99.90;;;;;;5015926;28;20211;-61
2021/12/27 06:16:27;;;;;;;0.50;0.50;;;9.30;99.90;;;;;;5015067;28;20311;-62
2021/12/27 06:18:54;;;;;;;0.53;0.53;;;9.20;99.90;;;;;;5015195;28;20213;-63
2021/12/27 06:21:23;;;;;;;0.40;0.40;;;9.20;99.90;;;;;;5015491;28;20300;-62
2021/12/27 06:23:50;;;;;;;0.40;0.40;;;9.30;99.90;;;;;;5012349;28;20205;-64
2021/12/27 06:26:17;;;;;;;0.50;0.50;;;9.20;99.90;;;;;;5014905;28;20316;-64
2021/12/27 06:28:44;;;;;;;0.40;0.40;;;9.30;99.90;;;;;;5015671;28;20212;-63
2021/12/27 06:31:11;;;;;;;0.47;0.47;;;9.30;99.90;;;;;;5014466;28;20684;-62
2021/12/27 06:33:38;;;;;;;0.60;0.60;;;9.30;99.90;;;;;;5007264;28;20212;-63
2021/12/27 06:36:05;;;;;;;0.40;0.40;;;9.30;99.90;;;;;;5014458;28;20884;-62
2021/12/27 06:38:34;;;;;;;0.50;0.50;;;9.30;99.90;;;;;;5012686;28;20209;-62
2021/12/27 06:41:01;;;;;;;0.50;0.50;;;9.30;99.90;;;;;;5006939;28;20236;-63
2021/12/27 06:43:30;;;;;;;0.60;0.60;;;9.30;99.90;;;;;;5015685;28;20279;-61
2021/12/27 06:45:57;;;;;;;0.60;0.60;;;9.30;99.90;;;;;;5010812;28;20229;-60
2021/12/27 06:48:24;;;;;;;0.50;0.50;;;9.30;99.90;;;;;;5015550;28;20266;-62
2021/12/27 06:50:51;;;;;;;0.70;0.70;;;9.30;99.90;;;;;;5016708;28;20209;-62
2021/12/27 06:53:18;;;;;;;0.70;0.70;;;9.20;99.90;;;;;;5017306;28;20229;-63
2021/12/27 06:55:47;;;;;;;0.70;0.70;;;9.20;99.90;;;;;;5017563;28;20229;-63
2021/12/27 06:58:15;;;;;;;0.77;0.77;;;9.10;99.90;;;;;;5020148;28;20205;-63
2021/12/27 07:00:42;;;;;;;0.57;0.57;;;9.10;99.90;;;;;;5017690;28;20228;-63
2021/12/27 07:03:11;;;;;;;0.50;0.50;;;9.10;99.90;;;;;;5016401;28;20276;-63
2021/12/27 07:05:38;;;;;;;0.50;0.50;;;9.10;99.90;;;;;;5015763;28;20226;-63
2021/12/27 07:08:05;;;;;;;0.63;0.63;;;9.10;99.90;;;;;;5014761;28;20320;-62
2021/12/27 07:10:32;;;;;;;0.40;0.40;;;9.10;99.90;;;;;;5015931;28;20288;-62
2021/12/27 07:13:02;;;;;;;0.77;0.77;;;9.10;99.90;;;;;;5015433;28;20204;-62
2021/12/27 07:15:29;;;;;;;0.60;0.60;;;9.10;99.90;;;;;;5015888;28;20233;-63
2021/12/27 07:17:56;;;;;;;0.60;0.60;;;9.00;99.90;;;;;;5015836;28;20232;-61
2021/12/27 07:20:23;;;;;;;0.60;0.60;;;9.00;99.90;;;;;;5015050;28;20209;-62
2021/12/27 07:22:50;;;;;;;0.60;0.60;;;8.90;99.90;;;;;;5015178;28;20215;-63
2021/12/27 07:25:17;;;;;;;0.80;0.80;;;8.90;99.90;;;;;;5014757;28;20229;-64
2021/12/27 07:27:44;;;;;;;0.80;0.80;;;8.80;99.90;;;;;;5002378;28;20271;-62
2021/12/27 07:30:13;;;;;;;0.80;0.80;;;8.80;99.90;;;;;;5015735;28;20273;-64
2021/12/27 07:32:40;;;;;;;0.60;0.60;;;8.80;99.90;;;;;;5015589;28;20212;-62
2021/12/27 07:35:09;;;;;;;0.80;0.80;;;8.80;99.90;;;;;;5014453;28;20304;-63
2021/12/27 07:37:37;;;;;;;0.60;0.60;;;8.80;99.90;;;;;;4999119;28;20213;-62
2021/12/27 07:40:05;;;;;;;0.70;0.70;;;8.90;99.90;;;;;;5013795;28;20208;-62
2021/12/27 07:42:32;;;;;;;0.70;0.70;;;8.80;99.90;;;;;;5013791;28;20296;-62
2021/12/27 07:44:59;;;;;;;0.60;0.60;;;8.90;99.90;;;;;;5013885;28;20684;-64
2021/12/27 07:47:27;;;;;;;0.57;0.57;;;8.90;99.90;;;;;;5013507;28;20225;-64
2021/12/27 07:49:54;;;;;;;0.60;0.60;;;8.90;99.90;;;;;;5013235;28;20300;-62
2021/12/27 07:52:21;;;;;;;0.70;0.70;;;9.00;99.90;;;;;;5013829;28;20204;-63
2021/12/27 07:54:48;;;;;;;0.80;0.80;;;9.00;99.90;;;;;;5013829;28;20288;-61
2021/12/27 07:57:16;;;;;;;0.60;0.60;;;8.90;99.90;;;;;;5010347;28;20679;-61
2021/12/27 07:59:47;;;;;;;0.80;0.80;;;8.90;99.90;;;;;;5010994;28;20244;-63
2021/12/27 08:02:14;;;;;;;0.70;0.70;;;8.90;99.90;;;;;;5014230;28;20239;-63
2021/12/27 08:04:43;;;;;;;0.60;0.60;;;8.90;99.90;;;;;;5015158;28;20268;-63
2021/12/27 08:07:11;;;;;;;0.70;0.67;;;8.90;99.90;;;;;;5014718;28;20320;-63
2021/12/27 08:09:38;;;;;;;0.63;0.63;;;8.80;99.90;;;;;;5014064;28;20212;-63
2021/12/27 08:12:05;;;;;;;0.63;0.63;;;8.80;99.90;;;;;;5013988;28;20787;-64
2021/12/27 08:14:32;;;;;;;0.70;0.70;;;8.80;99.90;;;;;;5014362;28;20289;-62
2021/12/27 08:16:59;;;;;;;0.80;0.80;;;8.80;99.90;;;;;;5007844;28;20300;-62
2021/12/27 08:19:26;;;;;;;0.70;0.70;;;8.80;99.90;;;;;;5013966;28;20305;-61
2021/12/27 08:21:54;;;;;;;0.70;0.70;;;8.80;99.90;;;;;;5013355;28;20292;-61
2021/12/27 08:24:21;;;;;;;0.97;0.97;;;8.80;99.90;;;;;;5012912;28;20291;-65
2021/12/27 08:26:48;;;;;;;0.70;0.70;;;8.90;99.90;;;;;;5012476;28;20679;-61
2021/12/27 08:29:15;;;;;;;0.80;0.80;;;8.90;99.90;;;;;;5009166;28;20264;-63
2021/12/27 08:31:42;;;;;;;0.70;0.70;;;8.90;99.90;;;;;;5012770;28;20292;-64
2021/12/27 08:34:09;;;;;;;0.80;0.80;;;8.90;99.90;;;;;;5010330;28;20197;-62
2021/12/27 08:36:36;;;;;;;0.90;0.90;;;8.90;99.90;;;;;;5012977;28;20263;-62
2021/12/27 08:39:05;;;;;;;1.00;1.00;;;8.90;99.90;;;;;;5011728;28;20210;-62
2021/12/27 08:41:33;;;;;;;1.00;1.00;;;8.90;99.90;;;;;;5009172;28;20266;-61
2021/12/27 08:44:04;;;;;;;0.80;0.80;;;9.00;99.90;;;;;;5012176;28;20244;-62
2021/12/27 08:46:31;;;;;;;0.80;0.80;;;9.10;99.90;;;;;;5005300;28;20717;-62
2021/12/27 08:48:58;;;;;;;0.80;0.80;;;9.10;99.90;;;;;;5007312;28;20233;-63
2021/12/27 08:51:25;;;;;;;1.03;1.03;;;9.20;99.90;;;;;;5006211;28;20284;-63
2021/12/27 08:53:53;;;;;;;0.70;0.70;;;9.30;99.90;;;;;;5005950;28;20281;-66
2021/12/27 08:56:21;;;;;;;1.00;1.00;;;9.30;99.90;;;;;;5014357;28;20253;-63
2021/12/27 08:58:48;;;;;;;0.80;0.80;;;9.30;99.90;;;;;;5016521;28;20229;-62
2021/12/27 09:01:15;;;;;;;0.80;0.80;;;9.40;99.90;;;;;;5010393;28;20756;-64
2021/12/27 09:03:42;;;;;;;0.90;0.90;;;9.50;99.90;;;;;;5014355;28;20570;-63
2021/12/27 09:06:09;;;;;;;0.93;0.93;;;9.60;99.90;;;;;;5014262;28;20646;-62
2021/12/27 09:08:36;;;;;;;1.10;1.10;;;9.70;99.90;;;;;;5015110;28;20228;-62
2021/12/27 09:11:03;;;;;;;1.00;1.00;;;9.70;99.90;;;;;;5008466;28;20209;-62
2021/12/27 09:13:32;;;;;;;0.90;0.90;;;9.80;99.90;;;;;;5014241;28;20229;-64
2021/12/27 09:16:01;;;;;;;0.73;0.73;;;9.90;99.90;;;;;;5012558;28;20303;-64
2021/12/27 09:18:28;;;;;;;0.70;0.70;;;10.00;99.90;;;;;;5014068;28;20201;-63
2021/12/27 09:20:55;;;;;;;0.90;0.90;;;10.10;99.90;;;;;;5012873;28;20234;-63
2021/12/27 09:23:22;;;;;;;0.90;0.90;;;10.10;99.90;;;;;;5014710;28;20633;-62
2021/12/27 09:25:49;;;;;;;0.80;0.80;;;10.10;99.90;;;;;;5008793;28;20585;-61
2021/12/27 09:28:16;;;;;;;0.83;0.83;;;10.20;99.90;;;;;;5010862;28;20387;-61
2021/12/27 09:30:45;;;;;;;0.70;0.70;;;10.30;99.90;;;;;;5012663;28;20285;-62
2021/12/27 09:33:12;;;;;;;0.73;0.73;;;10.30;99.90;;;;;;5010656;28;20654;-62
2021/12/27 09:35:40;;;;;;;0.60;0.60;;;10.40;99.90;;;;;;5010574;28;20292;-61
2021/12/27 09:38:08;;;;;;;0.90;0.90;;;10.50;99.90;;;;;;5013785;28;20682;-61
2021/12/27 09:40:35;;;;;;;0.90;0.90;;;10.50;99.90;;;;;;5013516;28;20210;-60
2021/12/27 09:43:02;;;;;;;0.80;0.80;;;10.60;99.90;;;;;;5014739;28;20255;-62
2021/12/27 09:45:29;;;;;;;0.73;0.73;;;10.70;99.90;;;;;;5014887;28;20272;-60
2021/12/27 09:47:58;;;;;;;0.90;0.90;;;10.60;99.90;;;;;;5009308;28;20225;-60
2021/12/27 09:50:33;;;;;;;0.90;0.90;;;10.60;99.90;;;;;;5008074;28;20722;-61
2021/12/27 09:53:00;;;;;;;0.73;0.73;;;10.60;99.90;;;;;;5009338;28;20645;-60
2021/12/27 09:55:27;;;;;;;1.17;1.13;;;10.80;99.90;;;;;;5007898;28;20664;-61
2021/12/27 09:57:55;;;;;;;0.90;0.90;;;10.80;99.90;;;;;;5020097;28;20229;-61
2021/12/27 10:00:24;;;;;;;1.00;1.00;;;10.80;99.90;;;;;;5019051;28;20293;-61
2021/12/27 10:02:53;;;;;;;1.10;1.10;;;10.80;99.90;;;;;;5018081;28;20209;-61
2021/12/27 10:05:22;;;;;;;1.03;1.03;;;10.80;99.90;;;;;;5008599;28;20304;-61
2021/12/27 10:07:49;;;;;;;0.80;0.80;;;10.80;99.90;;;;;;5003724;28;20240;-60
2021/12/27 10:10:17;;;;;;;1.00;1.00;;;10.80;99.90;;;;;;5009042;28;20205;-60
2021/12/27 10:12:44;;;;;;;1.00;1.00;;;10.90;99.90;;;;;;5006375;28;20639;-63
2021/12/27 10:15:14;;;;;;;1.00;1.00;;;10.90;99.90;;;;;;5005445;28;20222;-63
2021/12/27 10:17:43;;;;;;;1.00;1.00;;;11.00;99.90;;;;;;5005237;28;20229;-63
2021/12/27 10:20:11;;;;;;;1.37;1.27;;;11.00;99.90;;;;;;5007164;28;20668;-62
2021/12/27 10:22:40;;;;;;;1.30;1.30;;;11.10;99.90;;;;;;5007994;28;20307;-62
2021/12/27 10:25:13;;;;;;;1.20;1.20;;;11.10;99.90;;;;;;5007364;28;20234;-62
2021/12/27 10:27:40;;;;;;;1.10;1.10;;;11.10;99.90;;;;;;5005946;28;20236;-63
2021/12/27 10:30:12;;;;;;;1.07;1.00;;;11.20;99.90;;;;;;5007261;28;20205;-63
2021/12/27 10:32:39;;;;;;;1.03;1.03;;;11.30;99.90;;;;;;5005520;28;20264;-62
2021/12/27 10:35:09;;;;;;;0.90;0.90;;;11.30;99.90;;;;;;5006933;28;20228;-63
2021/12/27 10:37:37;;;;;;;1.00;1.00;;;11.30;99.90;;;;;;5008255;28;20233;-63
2021/12/27 10:40:08;;;;;;;1.00;1.00;;;11.40;99.90;;;;;;5003931;28;20245;-62
2021/12/27 10:42:36;;;;;;;0.70;0.70;;;11.40;99.90;;;;;;5037582;22;20256;-63
2021/12/27 10:45:07;;;;;;;0.83;0.83;;;11.50;99.90;;;;;;5034841;28;20649;-63
2021/12/27 10:47:44;;;;;;;0.83;0.80;;;11.50;99.90;;;;;;5033416;28;20271;-63
2021/12/27 10:50:17;;;;;;;0.73;0.73;;;11.50;99.90;;;;;;5035680;28;20205;-63
2021/12/27 10:52:56;;;;;;;0.80;0.80;;;11.50;99.90;;;;;;5033024;28;20666;-63
2021/12/27 10:55:28;;;;;;;0.73;0.73;;;11.50;99.90;;;;;;5027483;28;20238;-63
2021/12/27 10:58:10;;;;;;;0.80;0.80;;;11.50;99.90;;;;;;5031814;28;20630;-62
2021/12/27 11:00:38;;;;;;;0.73;0.73;;;11.60;99.90;;;;;;5030591;28;20647;-62
2021/12/27 11:03:05;;;;;;;0.57;0.57;;;11.60;99.90;;;;;;5031898;28;20332;-63
2021/12/27 11:05:34;;;;;;;1.33;0.60;;;11.60;99.90;;;;;;5035176;28;20274;-63
2021/12/27 11:08:05;;;;;;;0.60;0.60;;;11.60;99.90;;;;;;5030739;28;20311;-63
2021/12/27 11:10:36;;;;;;;0.60;0.60;;;11.70;99.90;;;;;;5032749;28;20667;-63
2021/12/27 11:13:05;;;;;;;0.60;0.60;;;11.70;99.90;;;;;;5030708;28;20232;-63
2021/12/27 11:15:34;;;;;;;1.13;1.00;;;11.80;99.90;;;;;;5031769;28;20291;-64
2021/12/27 11:18:02;;;;;;;0.80;0.80;;;11.80;99.90;;;;;;5030969;28;20227;-63
2021/12/27 11:20:29;;;;;;;0.70;0.70;;;11.90;99.90;;;;;;5031610;28;20289;-63
2021/12/27 11:22:58;;;;;;;0.60;0.60;;;11.90;99.90;;;;;;5031514;28;20259;-63
2021/12/27 11:25:36;;;;;;;0.60;0.60;;;11.90;99.90;;;;;;5031337;28;20212;-64
2021/12/27 11:28:04;;;;;;;0.80;0.80;;;11.90;99.90;;;;;;5040288;28;20212;-64
2021/12/27 11:30:34;;;;;;;0.63;0.63;;;11.90;99.90;;;;;;5038560;28;20689;-64
2021/12/27 11:33:12;;;;;;;0.60;0.60;;;11.90;99.90;;;;;;5031437;28;20303;-64
2021/12/27 11:36:01;;;;;;;0.70;0.70;;;12.10;99.90;;;;;;5028088;28;20192;-64
2021/12/27 11:38:31;;;;;;;0.40;0.40;;;12.10;99.90;;;;;;5030371;28;20225;-64
2021/12/27 11:41:00;;;;;;;0.60;0.60;;;12.20;99.90;;;;;;5032097;28;20196;-63
2021/12/27 11:43:49;;;;;;;0.40;0.40;;;12.30;99.90;;;;;;5026640;28;20292;-64
2021/12/27 11:46:16;;;;;;;0.57;0.57;;;12.40;99.90;;;;;;5017361;28;20201;-64
2021/12/27 11:48:48;;;;;;;0.60;0.60;;;12.50;99.90;;;;;;5028750;28;20602;-63
2021/12/27 11:51:16;;;;;;;0.80;0.80;;;12.60;99.90;;;;;;5032617;28;20723;-63
2021/12/27 11:53:48;;;;;;;1.37;1.37;;;12.60;99.90;;;;;;5028107;28;20292;-62
2021/12/27 11:56:46;;;;;;;1.00;1.00;;;12.50;99.90;;;;;;5031770;28;20205;-64
2021/12/27 11:59:36;;;;;;;1.10;1.10;;;12.40;99.90;;;;;;5012572;28;20691;-62
2021/12/27 12:02:25;;;;;;;1.03;1.03;;;12.40;99.90;;;;;;5012342;28;20240;-64
2021/12/27 12:04:53;;;;;;;1.30;1.30;;;12.30;99.90;;;;;;5011127;28;20212;-64
2021/12/27 12:07:51;;;;;;;1.20;1.20;;;12.20;99.90;;;;;;5013742;28;20350;-63
2021/12/27 12:10:20;;;;;;;1.10;1.10;;;12.10;99.90;;;;;;4979412;28;20695;-63
2021/12/27 12:13:20;;;;;;;1.10;1.10;;;12.00;99.90;;;;;;5019531;28;20230;-64
2021/12/27 12:16:02;;;;;;;1.00;1.00;;;11.90;99.90;;;;;;5032671;28;20228;-63
2021/12/27 12:18:30;;;;;;;1.17;1.17;;;11.90;99.90;;;;;;5031491;28;20223;-63
2021/12/27 12:20:57;;;;;;;1.17;1.17;;;11.90;99.90;;;;;;5031282;28;20205;-65
2021/12/27 12:23:24;;;;;;;1.03;1.03;;;11.90;99.90;;;;;;5031151;28;20762;-64
2021/12/27 12:25:59;;;;;;;0.90;0.90;;;11.90;99.90;;;;;;5031719;28;20263;-61
2021/12/27 12:28:28;;;;;;;1.00;1.00;;;11.70;99.90;;;;;;5031375;28;20219;-64
2021/12/27 12:30:56;;;;;;;1.17;1.17;;;11.50;99.90;;;;;;5035080;28;20213;-64
2021/12/27 12:33:25;;;;;;;1.20;1.10;;;11.40;99.90;;;;;;5031381;28;20239;-63
2021/12/27 12:35:54;;;;;;;0.87;0.87;;;11.40;99.90;;;;;;5021637;28;20588;-64
2021/12/27 12:38:23;;;;;;;0.90;0.90;;;11.30;99.90;;;;;;5018900;28;20193;-64
2021/12/27 12:41:08;;;;;;;1.10;1.10;;;11.30;99.90;;;;;;5014957;28;20213;-63
2021/12/27 12:43:42;;;;;;;1.07;1.07;;;11.30;99.90;;;;;;5018177;28;20201;-63
2021/12/27 12:46:15;;;;;;;0.90;0.90;;;11.40;99.90;;;;;;5022170;28;20299;-64
2021/12/27 12:48:42;;;;;;;1.00;1.00;;;11.50;99.90;;;;;;5031070;28;20689;-65
2021/12/27 12:51:09;;;;;;;0.80;0.80;;;11.60;99.90;;;;;;5036163;28;20276;-63
2021/12/27 12:53:37;;;;;;;1.00;1.00;;;11.60;99.90;;;;;;5028791;28;20217;-66
2021/12/27 12:56:06;;;;;;;1.10;1.10;;;11.70;99.90;;;;;;5035678;28;20251;-63
2021/12/27 12:58:35;;;;;;;1.10;1.10;;;11.70;99.90;;;;;;5036697;28;20205;-63
2021/12/27 13:01:09;;;;;;;1.13;1.10;;;11.70;99.90;;;;;;5032061;28;20777;-64
2021/12/27 13:03:37;;;;;;;1.00;1.00;;;11.70;99.90;;;;;;5033705;28;20284;-64